createdAt,value
2022-12-28T00:02:15.139Z,100805.00
2022-12-28T00:04:43.118Z,100800.00
2022-12-28T00:07:11.220Z,100797.00
2022-12-28T00:09:38.957Z,100796.00
2022-12-28T00:12:07.079Z,100797.00
2022-12-28T00:14:35.133Z,100790.00
2022-12-28T00:17:02.958Z,100775.00
2022-12-28T00:19:30.669Z,100784.00
2022-12-28T00:21:59.025Z,100754.00
2022-12-28T00:24:27.074Z,100763.00
2022-12-28T00:26:57.103Z,100758.00
2022-12-28T00:29:25.382Z,100765.00
2022-12-28T00:31:53.414Z,100760.00
2022-12-28T00:34:24.852Z,100762.00
2022-12-28T00:37:10.161Z,100756.00
2022-12-28T00:39:42.336Z,100753.00
2022-12-28T00:42:10.672Z,100743.00
2022-12-28T00:44:38.923Z,100741.00
2022-12-28T00:47:07.209Z,100734.00
2022-12-28T00:49:35.159Z,100743.00
2022-12-28T00:52:06.064Z,100739.00
2022-12-28T00:54:33.894Z,100731.00
2022-12-28T00:57:03.653Z,100732.00
2022-12-28T00:59:32.532Z,100733.00
2022-12-28T01:02:00.888Z,100725.00
2022-12-28T01:04:28.785Z,100724.00
2022-12-28T01:06:56.572Z,100708.00
2022-12-28T01:09:24.475Z,100703.00
2022-12-28T01:11:52.235Z,100708.00
2022-12-28T01:14:19.978Z,100702.00
2022-12-28T01:16:48.171Z,100704.00
2022-12-28T01:19:20.492Z,100701.00
2022-12-28T01:21:52.745Z,100698.00
2022-12-28T01:24:20.912Z,100688.00
2022-12-28T01:26:48.594Z,100687.00
2022-12-28T01:29:16.290Z,100684.00
2022-12-28T01:31:44.149Z,100681.00
2022-12-28T01:34:13.758Z,100672.00
2022-12-28T01:36:41.459Z,100671.00
2022-12-28T01:39:10.709Z,100654.00
2022-12-28T01:41:40.438Z,100658.00
2022-12-28T01:44:08.359Z,100656.00
2022-12-28T01:46:43.465Z,100647.00
2022-12-28T01:49:24.911Z,100630.00
2022-12-28T01:52:06.533Z,100633.00
2022-12-28T01:54:42.288Z,100628.00
2022-12-28T01:57:10.261Z,100624.00
2022-12-28T01:59:43.679Z,100615.00
2022-12-28T02:02:13.619Z,100614.00
2022-12-28T02:04:41.753Z,100608.00
2022-12-28T02:07:10.699Z,100596.00
2022-12-28T02:09:43.915Z,100591.00
2022-12-28T02:12:14.702Z,100589.00
2022-12-28T02:14:43.787Z,100588.00
2022-12-28T02:17:12.096Z,100582.00
2022-12-28T02:19:46.213Z,100579.00
2022-12-28T02:22:38.344Z,100570.00
2022-12-28T02:25:30.759Z,100565.00
2022-12-28T02:28:18.091Z,100566.00
2022-12-28T02:30:55.202Z,100552.00
2022-12-28T02:33:52.794Z,100538.00
2022-12-28T02:36:33.484Z,100540.00
2022-12-28T02:39:13.756Z,100538.00
2022-12-28T02:41:43.312Z,100528.00
2022-12-28T02:44:11.602Z,100519.00
2022-12-28T02:46:58.150Z,100525.00
2022-12-28T02:49:46.760Z,100516.00
2022-12-28T02:52:40.052Z,100512.00
2022-12-28T02:55:52.100Z,100505.00
2022-12-28T02:58:38.527Z,100497.00
2022-12-28T03:01:28.135Z,100495.00
2022-12-28T03:04:03.801Z,100493.00
2022-12-28T03:07:01.699Z,100501.00
2022-12-28T03:09:38.429Z,100490.00
2022-12-28T03:12:10.926Z,100484.00
2022-12-28T03:15:14.229Z,100484.00
2022-12-28T03:18:03.178Z,100480.00
2022-12-28T03:20:50.906Z,100468.00
2022-12-28T03:23:39.614Z,100463.00
2022-12-28T03:26:28.429Z,100471.00
2022-12-28T03:29:15.488Z,100466.00
2022-12-28T03:31:45.633Z,100465.00
2022-12-28T03:34:18.629Z,100457.00
2022-12-28T03:36:57.416Z,100456.00
2022-12-28T03:39:36.386Z,100454.00
2022-12-28T03:42:34.090Z,100461.00
2022-12-28T03:45:46.688Z,100445.00
2022-12-28T03:48:14.833Z,100442.00
2022-12-28T03:50:44.928Z,100451.00
2022-12-28T03:53:16.012Z,100436.00
2022-12-28T03:55:44.382Z,100435.00
2022-12-28T03:58:13.690Z,100430.00
2022-12-28T04:00:42.766Z,100417.00
2022-12-28T04:03:10.702Z,100408.00
2022-12-28T04:05:38.803Z,100403.00
2022-12-28T04:08:06.890Z,100400.00
2022-12-28T04:10:35.123Z,100390.00
2022-12-28T04:13:03.049Z,100389.00
2022-12-28T04:15:40.426Z,100370.00
2022-12-28T04:18:08.792Z,100368.00
2022-12-28T04:20:36.591Z,100362.00
2022-12-28T04:23:04.585Z,100366.00
2022-12-28T04:25:33.493Z,100362.00
2022-12-28T04:28:01.541Z,100357.00
2022-12-28T04:30:59.582Z,100348.00
2022-12-28T04:33:28.028Z,100339.00
2022-12-28T04:36:03.611Z,100345.00
2022-12-28T04:38:32.830Z,100343.00
2022-12-28T04:41:00.551Z,100326.00
2022-12-28T04:43:30.741Z,100317.00
2022-12-28T04:46:04.484Z,100312.00
2022-12-28T04:48:32.824Z,100321.00
2022-12-28T04:51:17.550Z,100306.00
2022-12-28T04:53:45.427Z,100294.00
2022-12-28T04:56:14.040Z,100298.00
2022-12-28T04:58:42.089Z,100279.00
2022-12-28T05:01:12.460Z,100289.00
2022-12-28T05:03:42.394Z,100292.00
2022-12-28T05:06:14.497Z,100276.00
2022-12-28T05:08:42.850Z,100277.00
2022-12-28T05:11:14.748Z,100281.00
2022-12-28T05:13:42.706Z,100270.00
2022-12-28T05:16:13.444Z,100274.00
2022-12-28T05:18:41.682Z,100262.00
2022-12-28T05:21:11.526Z,100271.00
2022-12-28T05:23:39.731Z,100254.00
2022-12-28T05:26:09.893Z,100247.00
2022-12-28T05:28:37.743Z,100251.00
2022-12-28T05:31:10.017Z,100238.00
2022-12-28T05:33:38.498Z,100235.00
2022-12-28T05:36:10.731Z,100226.00
2022-12-28T05:38:38.758Z,100212.00
2022-12-28T05:41:21.648Z,100211.00
2022-12-28T05:43:49.939Z,100200.00
2022-12-28T05:46:27.017Z,100198.00
2022-12-28T05:48:55.617Z,100194.00
2022-12-28T05:51:25.346Z,100193.00
2022-12-28T05:53:53.118Z,100184.00
2022-12-28T05:56:23.857Z,100187.00
2022-12-28T05:59:00.211Z,100182.00
2022-12-28T06:01:31.100Z,100183.00
2022-12-28T06:04:01.218Z,100162.00
2022-12-28T06:06:31.967Z,100172.00
2022-12-28T06:09:02.997Z,100158.00
2022-12-28T06:11:31.387Z,100154.00
2022-12-28T06:14:00.061Z,100152.00
2022-12-28T06:16:30.192Z,100160.00
2022-12-28T06:18:59.009Z,100152.00
2022-12-28T06:21:31.750Z,100144.00
2022-12-28T06:24:01.143Z,100145.00
2022-12-28T06:26:31.082Z,100147.00
2022-12-28T06:28:59.882Z,100147.00
2022-12-28T06:31:32.678Z,100138.00
2022-12-28T06:34:02.197Z,100148.00
2022-12-28T06:36:34.828Z,100153.00
2022-12-28T06:39:04.452Z,100140.00
2022-12-28T06:41:32.662Z,100141.00
2022-12-28T06:44:01.060Z,100139.00
2022-12-28T06:46:30.420Z,100137.00
2022-12-28T06:48:58.788Z,100123.00
2022-12-28T06:51:30.051Z,100124.00
2022-12-28T06:53:58.350Z,100122.00
2022-12-28T06:56:33.812Z,100128.00
2022-12-28T06:59:04.013Z,100114.00
2022-12-28T07:01:40.505Z,100124.00
2022-12-28T07:04:09.789Z,100111.00
2022-12-28T07:06:40.677Z,100112.00
2022-12-28T07:09:13.833Z,100103.00
2022-12-28T07:11:42.582Z,100110.00
2022-12-28T07:14:10.595Z,100095.00
2022-12-28T07:19:05.504Z,100096.00
2022-12-28T07:21:36.004Z,100097.00
2022-12-28T07:24:04.941Z,100091.00
2022-12-28T07:26:34.623Z,100093.00
2022-12-28T07:29:04.505Z,100097.00
2022-12-28T07:31:44.243Z,100097.00
2022-12-28T07:34:16.511Z,100092.00
2022-12-28T07:36:47.181Z,100080.00
2022-12-28T07:39:15.018Z,100086.00
2022-12-28T07:41:43.402Z,100086.00
2022-12-28T07:44:11.230Z,100089.00
2022-12-28T07:46:39.186Z,100092.00
2022-12-28T07:49:08.012Z,100085.00
2022-12-28T07:51:37.464Z,100089.00
2022-12-28T07:54:06.366Z,100101.00
2022-12-28T07:59:06.603Z,100069.00
2022-12-28T08:01:36.635Z,100085.00
2022-12-28T08:04:06.921Z,100079.00
2022-12-28T08:06:37.781Z,100084.00
2022-12-28T08:09:06.670Z,100082.00
2022-12-28T08:11:37.732Z,100078.00
2022-12-28T08:14:06.324Z,100078.00
2022-12-28T08:16:39.502Z,100080.00
2022-12-28T08:19:08.830Z,100079.00
2022-12-28T08:21:42.679Z,100070.00
2022-12-28T08:24:15.799Z,100085.00
2022-12-28T08:26:44.522Z,100094.00
2022-12-28T08:29:19.839Z,100102.00
2022-12-28T08:31:48.415Z,100099.00
2022-12-28T08:34:23.194Z,100099.00
2022-12-28T08:36:54.742Z,100084.00
2022-12-28T08:39:22.441Z,100080.00
2022-12-28T08:41:50.353Z,100080.00
2022-12-28T08:44:18.066Z,100079.00
2022-12-28T08:46:45.912Z,100080.00
2022-12-28T08:49:13.880Z,100080.00
2022-12-28T08:51:42.711Z,100081.00
2022-12-28T08:54:12.334Z,100087.00
2022-12-28T08:56:42.587Z,100084.00
2022-12-28T08:59:12.005Z,100098.00
2022-12-28T09:01:44.211Z,100081.00
2022-12-28T09:04:20.619Z,100080.00
2022-12-28T09:06:49.367Z,100076.00
2022-12-28T09:09:19.613Z,100078.00
2022-12-28T09:11:49.407Z,100097.00
2022-12-28T09:14:23.198Z,100090.00
2022-12-28T09:16:52.979Z,100098.00
2022-12-28T09:19:21.355Z,100091.00
2022-12-28T09:21:49.536Z,100096.00
2022-12-28T09:24:17.602Z,100084.00
2022-12-28T09:26:47.823Z,100095.00
2022-12-28T09:29:15.808Z,100097.00
2022-12-28T09:31:44.515Z,100101.00
2022-12-28T09:37:04.421Z,100096.00
2022-12-28T09:39:32.426Z,100079.00
2022-12-28T09:42:21.790Z,100077.00
2022-12-28T09:44:51.061Z,100077.00
2022-12-28T09:47:33.257Z,100066.00
2022-12-28T09:50:14.090Z,100091.00
2022-12-28T09:53:17.204Z,100078.00
2022-12-28T09:56:00.560Z,100092.00
2022-12-28T09:58:30.691Z,100082.00
2022-12-28T10:01:02.606Z,100086.00
2022-12-28T10:03:42.215Z,100074.00
2022-12-28T10:06:16.349Z,100080.00
2022-12-28T10:08:50.394Z,100096.00
2022-12-28T10:11:41.652Z,100090.00
2022-12-28T10:14:33.597Z,100073.00
2022-12-28T10:17:02.101Z,100079.00
2022-12-28T10:19:30.581Z,100081.00
2022-12-28T10:22:14.481Z,100074.00
2022-12-28T10:24:42.840Z,100083.00
2022-12-28T10:27:20.105Z,100077.00
2022-12-28T10:29:48.276Z,100073.00
2022-12-28T10:32:16.362Z,100079.00
2022-12-28T10:35:03.555Z,100084.00
2022-12-28T10:37:33.029Z,100083.00
2022-12-28T10:40:07.857Z,100082.00
2022-12-28T10:42:46.682Z,100076.00
2022-12-28T10:45:20.623Z,100078.00
2022-12-28T10:47:50.824Z,100088.00
2022-12-28T10:50:42.931Z,100074.00
2022-12-28T10:53:41.785Z,100067.00
2022-12-28T10:56:20.999Z,100061.00
2022-12-28T10:58:50.733Z,100056.00
2022-12-28T11:01:20.399Z,100049.00
2022-12-28T11:04:07.597Z,100062.00
2022-12-28T11:06:56.968Z,100051.00
2022-12-28T11:09:30.968Z,100051.00
2022-12-28T11:12:29.422Z,100062.00
2022-12-28T11:14:57.363Z,100055.00
2022-12-28T11:17:28.986Z,100047.00
2022-12-28T11:20:18.653Z,100046.00
2022-12-28T11:22:47.571Z,100033.00
2022-12-28T11:25:17.456Z,100047.00
2022-12-28T11:27:46.303Z,100043.00
2022-12-28T11:30:17.657Z,100046.00
2022-12-28T11:33:00.477Z,100038.00
2022-12-28T11:35:31.545Z,100035.00
2022-12-28T11:38:02.177Z,100036.00
2022-12-28T11:40:53.355Z,100025.00
2022-12-28T11:43:30.564Z,100032.00
2022-12-28T11:46:21.118Z,100013.00
2022-12-28T11:49:14.286Z,100021.00
2022-12-28T11:51:42.079Z,100013.00
2022-12-28T11:54:51.481Z,100008.00
2022-12-28T11:57:45.061Z,100010.00
2022-12-28T12:00:23.489Z,100015.00
2022-12-28T12:02:58.716Z,100008.00
2022-12-28T12:05:38.813Z,100020.00
2022-12-28T12:08:12.754Z,100013.00
2022-12-28T12:11:18.909Z,100010.00
2022-12-28T12:13:49.926Z,99999.00
2022-12-28T12:16:29.495Z,99995.00
2022-12-28T12:18:58.915Z,99997.00
2022-12-28T12:21:34.464Z,99995.00
2022-12-28T12:24:29.239Z,99985.00
2022-12-28T12:27:10.196Z,99987.00
2022-12-28T12:29:45.887Z,99986.00
2022-12-28T12:32:23.431Z,99981.00
2022-12-28T12:35:01.402Z,99981.00
2022-12-28T12:37:57.128Z,99976.00
2022-12-28T12:40:57.086Z,99976.00
2022-12-28T12:43:33.948Z,99974.00
2022-12-28T12:46:30.406Z,99975.00
2022-12-28T12:49:31.956Z,99965.00
2022-12-28T12:52:41.937Z,99968.00
2022-12-28T12:55:26.193Z,99978.00
2022-12-28T12:58:03.280Z,99967.00
2022-12-28T13:00:55.956Z,99972.00
2022-12-28T13:03:31.421Z,99978.00
2022-12-28T13:05:59.637Z,99989.00
2022-12-28T13:08:32.155Z,99983.00
2022-12-28T13:11:00.041Z,99969.00
2022-12-28T13:13:34.929Z,99980.00
2022-12-28T13:16:05.752Z,99961.00
2022-12-28T13:18:44.421Z,99965.00
2022-12-28T13:21:21.054Z,99960.00
2022-12-28T13:23:50.012Z,99955.00
2022-12-28T13:26:18.667Z,99955.00
2022-12-28T13:29:09.693Z,99943.00
2022-12-28T13:31:40.127Z,99958.00
2022-12-28T13:34:29.295Z,99947.00
2022-12-28T13:37:13.530Z,99951.00
2022-12-28T13:39:42.371Z,99949.00
2022-12-28T13:42:23.600Z,99941.00
2022-12-28T13:45:03.649Z,99934.00
2022-12-28T13:47:37.896Z,99946.00
2022-12-28T13:50:19.661Z,99948.00
2022-12-28T13:53:00.971Z,99946.00
2022-12-28T13:55:37.080Z,99953.00
2022-12-28T13:58:11.950Z,99951.00
2022-12-28T14:00:42.702Z,99949.00
2022-12-28T14:03:12.126Z,99948.00
2022-12-28T14:05:45.161Z,99948.00
2022-12-28T14:08:13.138Z,99949.00
2022-12-28T14:10:41.621Z,99936.00
2022-12-28T14:13:10.830Z,99948.00
2022-12-28T14:15:41.374Z,99934.00
2022-12-28T14:18:10.255Z,99939.00
2022-12-28T14:20:54.386Z,99928.00
2022-12-28T14:23:28.011Z,99930.00
2022-12-28T14:26:00.938Z,99929.00
2022-12-28T14:28:49.429Z,99928.00
2022-12-28T14:31:22.374Z,99934.00
2022-12-28T14:34:01.987Z,99931.00
2022-12-28T14:36:39.645Z,99920.00
2022-12-28T14:39:15.984Z,99925.00
2022-12-28T14:41:47.641Z,99923.00
2022-12-28T14:44:19.583Z,99921.00
2022-12-28T14:46:47.628Z,99920.00
2022-12-28T14:49:30.379Z,99917.00
2022-12-28T14:52:10.702Z,99925.00
2022-12-28T14:54:46.346Z,99914.00
2022-12-28T14:57:35.709Z,99921.00
2022-12-28T15:00:16.525Z,99929.00
2022-12-28T15:02:44.477Z,99928.00
2022-12-28T15:05:35.025Z,99924.00
2022-12-28T15:08:03.316Z,99925.00
2022-12-28T15:10:32.237Z,99926.00
2022-12-28T15:13:00.135Z,99927.00
2022-12-28T15:15:28.730Z,99927.00
2022-12-28T15:17:56.824Z,99921.00
2022-12-28T15:20:24.742Z,99925.00
2022-12-28T15:22:54.134Z,99926.00
2022-12-28T15:25:22.283Z,99922.00
2022-12-28T15:27:51.909Z,99939.00
2022-12-28T15:30:25.732Z,99921.00
2022-12-28T15:32:56.688Z,99918.00
2022-12-28T15:35:24.789Z,99929.00
2022-12-28T15:37:52.710Z,99917.00
2022-12-28T15:40:23.526Z,99912.00
2022-12-28T15:42:51.440Z,99917.00
2022-12-28T15:45:19.402Z,99905.00
2022-12-28T15:47:47.371Z,99916.00
2022-12-28T15:50:15.285Z,99898.00
2022-12-28T15:52:45.855Z,99891.00
2022-12-28T15:55:13.808Z,99898.00
2022-12-28T15:57:42.108Z,99886.00
2022-12-28T16:00:14.598Z,99878.00
2022-12-28T16:02:42.704Z,99878.00
2022-12-28T16:05:10.861Z,99879.00
2022-12-28T16:07:38.761Z,99887.00
2022-12-28T16:10:09.954Z,99882.00
2022-12-28T16:12:38.148Z,99880.00
2022-12-28T16:15:08.049Z,99883.00
2022-12-28T16:17:44.138Z,99879.00
2022-12-28T16:20:18.098Z,99889.00
2022-12-28T16:22:46.152Z,99878.00
2022-12-28T16:25:14.159Z,99885.00
2022-12-28T16:27:42.145Z,99889.00
2022-12-28T16:30:10.656Z,99889.00
2022-12-28T16:32:38.499Z,99888.00
2022-12-28T16:35:06.747Z,99884.00
2022-12-28T16:37:34.579Z,99890.00
2022-12-28T16:40:02.655Z,99875.00
2022-12-28T16:42:30.685Z,99881.00
2022-12-28T16:44:58.546Z,99870.00
2022-12-28T16:47:26.234Z,99871.00
2022-12-28T16:49:56.593Z,99850.00
2022-12-28T16:52:24.772Z,99852.00
2022-12-28T16:54:52.772Z,99843.00
2022-12-28T16:57:20.683Z,99849.00
2022-12-28T16:59:48.599Z,99840.00
2022-12-28T17:02:19.658Z,99836.00
2022-12-28T17:04:47.533Z,99830.00
2022-12-28T17:07:15.382Z,99823.00
2022-12-28T17:09:49.943Z,99817.00
2022-12-28T17:12:18.207Z,99809.00
2022-12-28T17:14:45.907Z,99796.00
2022-12-28T17:17:13.639Z,99792.00
2022-12-28T17:19:41.389Z,99805.00
2022-12-28T17:22:09.440Z,99800.00
2022-12-28T17:24:37.365Z,99788.00
2022-12-28T17:27:08.440Z,99781.00
2022-12-28T17:29:37.304Z,99765.00
2022-12-28T17:32:06.288Z,99753.00
2022-12-28T17:34:34.901Z,99757.00
2022-12-28T17:37:02.983Z,99760.00
2022-12-28T17:39:34.693Z,99743.00
2022-12-28T17:42:07.560Z,99756.00
2022-12-28T17:44:35.758Z,99762.00
2022-12-28T17:47:03.881Z,99751.00
2022-12-28T17:49:31.655Z,99754.00
2022-12-28T17:51:59.414Z,99762.00
2022-12-28T17:54:27.339Z,99761.00
2022-12-28T17:56:57.998Z,99749.00
2022-12-28T17:59:26.017Z,99751.00
2022-12-28T18:01:54.187Z,99737.00
2022-12-28T18:04:22.167Z,99748.00
2022-12-28T18:06:52.997Z,99748.00
2022-12-28T18:09:25.704Z,99746.00
2022-12-28T18:11:56.479Z,99741.00
2022-12-28T18:14:25.013Z,99733.00
2022-12-28T18:16:53.323Z,99737.00
2022-12-28T18:19:24.022Z,99740.00
2022-12-28T18:21:51.792Z,99730.00
2022-12-28T18:24:21.094Z,99748.00
2022-12-28T18:26:49.361Z,99735.00
2022-12-28T18:29:17.271Z,99744.00
2022-12-28T18:31:45.231Z,99739.00
2022-12-28T18:34:13.190Z,99729.00
2022-12-28T18:36:41.140Z,99745.00
2022-12-28T18:39:09.991Z,99741.00
2022-12-28T18:41:37.983Z,99728.00
2022-12-28T18:44:06.792Z,99725.00
2022-12-28T18:46:34.735Z,99715.00
2022-12-28T18:49:03.055Z,99703.00
2022-12-28T18:51:30.955Z,99708.00
2022-12-28T18:53:58.797Z,99707.00
2022-12-28T18:56:26.651Z,99706.00
2022-12-28T18:58:56.208Z,99696.00
2022-12-28T19:04:16.947Z,99698.00
2022-12-28T19:06:45.218Z,99680.00
2022-12-28T19:09:13.712Z,99683.00
2022-12-28T19:11:42.429Z,99679.00
2022-12-28T19:14:12.772Z,99678.00
2022-12-28T19:16:40.802Z,99664.00
2022-12-28T19:19:08.898Z,99657.00
2022-12-28T19:21:39.433Z,99643.00
2022-12-28T19:24:19.255Z,99655.00
2022-12-28T19:26:47.828Z,99648.00
2022-12-28T19:29:16.850Z,99642.00
2022-12-28T19:31:45.098Z,99641.00
2022-12-28T19:34:13.091Z,99643.00
2022-12-28T19:36:40.891Z,99639.00
2022-12-28T19:39:08.873Z,99631.00
2022-12-28T19:41:36.913Z,99637.00
2022-12-28T19:44:05.132Z,99630.00
2022-12-28T19:46:33.182Z,99634.00
2022-12-28T19:49:03.009Z,99623.00
2022-12-28T19:51:32.311Z,99631.00
2022-12-28T19:54:01.237Z,99623.00
2022-12-28T19:56:29.233Z,99615.00
2022-12-28T19:59:05.055Z,99617.00
2022-12-28T20:01:35.281Z,99610.00
2022-12-28T20:04:10.412Z,99603.00
2022-12-28T20:06:40.979Z,99588.00
2022-12-28T20:09:09.031Z,99599.00
2022-12-28T20:11:37.117Z,99600.00
2022-12-28T20:14:05.496Z,99595.00
2022-12-28T20:16:34.834Z,99585.00
2022-12-28T20:19:06.838Z,99589.00
2022-12-28T20:21:36.168Z,99584.00
2022-12-28T20:24:04.850Z,99577.00
2022-12-28T20:26:32.917Z,99570.00
2022-12-28T20:29:01.817Z,99568.00
2022-12-28T20:31:30.255Z,99557.00
2022-12-28T20:33:58.311Z,99557.00
2022-12-28T20:36:28.784Z,99538.00
2022-12-28T20:38:57.201Z,99538.00
2022-12-28T20:41:45.583Z,99532.00
2022-12-28T20:44:26.097Z,99531.00
2022-12-28T20:46:54.687Z,99529.00
2022-12-28T20:49:23.419Z,99519.00
2022-12-28T20:51:52.042Z,99515.00
2022-12-28T20:54:20.145Z,99509.00
2022-12-28T20:56:54.280Z,99498.00
2022-12-28T20:59:24.511Z,99490.00
2022-12-28T21:01:52.901Z,99484.00
2022-12-28T21:04:21.252Z,99471.00
2022-12-28T21:06:49.354Z,99483.00
2022-12-28T21:09:17.169Z,99469.00
2022-12-28T21:11:45.121Z,99472.00
2022-12-28T21:14:12.852Z,99489.00
2022-12-28T21:16:40.866Z,99474.00
2022-12-28T21:19:10.710Z,99461.00
2022-12-28T21:21:38.547Z,99460.00
2022-12-28T21:24:06.827Z,99461.00
2022-12-28T21:26:34.700Z,99462.00
2022-12-28T21:29:02.686Z,99460.00
2022-12-28T21:31:30.722Z,99455.00
2022-12-28T21:33:58.791Z,99459.00
2022-12-28T21:36:27.497Z,99453.00
2022-12-28T21:38:57.636Z,99445.00
2022-12-28T21:41:43.973Z,99441.00
2022-12-28T21:44:13.473Z,99441.00
2022-12-28T21:46:41.920Z,99437.00
2022-12-28T21:49:10.159Z,99431.00
2022-12-28T21:51:39.466Z,99433.00
2022-12-28T21:54:15.675Z,99415.00
2022-12-28T21:56:45.413Z,99415.00
2022-12-28T21:59:14.412Z,99410.00
2022-12-28T22:02:01.823Z,99414.00
2022-12-28T22:04:48.280Z,99406.00
2022-12-28T22:07:17.803Z,99396.00
2022-12-28T22:10:04.677Z,99396.00
2022-12-28T22:12:35.842Z,99384.00
2022-12-28T22:15:35.381Z,99377.00
2022-12-28T22:21:06.414Z,99371.00
2022-12-28T22:23:34.958Z,99383.00
2022-12-28T22:26:03.426Z,99371.00
2022-12-28T22:28:31.212Z,99366.00
2022-12-28T22:30:59.071Z,99374.00
2022-12-28T22:33:26.919Z,99366.00
2022-12-28T22:35:54.724Z,99359.00
2022-12-28T22:38:22.405Z,99358.00
2022-12-28T22:41:02.569Z,99360.00
2022-12-28T22:43:30.396Z,99351.00
2022-12-28T22:46:06.453Z,99361.00
2022-12-28T22:48:34.278Z,99354.00
2022-12-28T22:51:04.295Z,99351.00
2022-12-28T22:53:32.573Z,99353.00
2022-12-28T22:56:01.687Z,99353.00
2022-12-28T22:58:30.376Z,99347.00
2022-12-28T23:01:13.502Z,99337.00
2022-12-28T23:03:45.285Z,99326.00
2022-12-28T23:06:16.888Z,99334.00
2022-12-28T23:08:46.087Z,99330.00
2022-12-28T23:11:34.789Z,99340.00
2022-12-28T23:14:28.049Z,99331.00
2022-12-28T23:16:56.254Z,99337.00
2022-12-28T23:19:42.987Z,99338.00
2022-12-28T23:22:32.423Z,99342.00
2022-12-28T23:25:19.083Z,99343.00
2022-12-28T23:27:47.861Z,99328.00
2022-12-28T23:30:21.142Z,99315.00
2022-12-28T23:32:50.874Z,99323.00
2022-12-28T23:35:19.486Z,99311.00
2022-12-28T23:37:47.377Z,99308.00
2022-12-28T23:40:16.897Z,99295.00
2022-12-28T23:42:45.366Z,99300.00
2022-12-28T23:45:15.758Z,99300.00
2022-12-28T23:47:44.013Z,99309.00
2022-12-28T23:50:13.451Z,99299.00
2022-12-28T23:52:46.459Z,99300.00
2022-12-28T23:55:14.463Z,99289.00
2022-12-28T23:57:42.800Z,99291.00
